UA-0038 weather

Kiev Chaika
Kiev, Kiev, Ukraine

Public forecast

Using degrees Celsius for public forecast. Weather courtesy of forecast.io.

Closest aviation weather report (METAR) to Kiev Chaika

Closest report is Kiev Zhuliany International Airport, 6.1 nm (11.3 km) ESE. Retrieved 2019/10/22 14:30 UTC (29 minutes ago):

UKKK 221430Z 10002MPS 8000 NSC 13/11 Q1024 R26/70D NOSIG

Closest aviation forecast (TAF) to Kiev Chaika

Closest forecast is Kiev Zhuliany International Airport, 6.1 nm (11.3 km) ESE. Retrieved 2019/10/22 12:12 UTC (3 hours ago):

TAF TAF UKKK 221101Z 2212/2312 24003MPS 4000 BR SCT007 TEMPO 2212/2215 VRB01MPS 1000 BR BKN003 BECMG 2215/2217 0300 FG VV002 TEMPO 2217/2308 VRB01MPS 1500 -DZ BR OVC004 BECMG 2308/2310 5000 BR SCT007